createdAt,value
2019-03-19T00:02:12.975Z,2.80
2019-03-19T00:04:40.489Z,2.80
2019-03-19T00:07:08.212Z,2.80
2019-03-19T00:09:35.969Z,2.80
2019-03-19T00:12:03.219Z,2.80
2019-03-19T00:14:31.283Z,2.70
2019-03-19T00:16:59.210Z,2.80
2019-03-19T00:19:26.508Z,2.80
2019-03-19T00:21:54.369Z,2.80
2019-03-19T00:24:22.023Z,2.70
2019-03-19T00:26:50.039Z,2.70
2019-03-19T00:29:19.997Z,2.70
2019-03-19T00:31:47.643Z,2.80
2019-03-19T00:34:16.685Z,2.90
2019-03-19T00:36:44.102Z,2.90
2019-03-19T00:39:11.923Z,3.00
2019-03-19T00:41:39.504Z,3.10
2019-03-19T00:44:07.449Z,3.10
2019-03-19T00:46:35.429Z,3.10
2019-03-19T00:49:03.068Z,3.10
2019-03-19T00:51:30.503Z,3.10
2019-03-19T00:53:58.630Z,3.10
2019-03-19T00:56:26.301Z,3.10
2019-03-19T00:58:53.966Z,3.00
2019-03-19T01:01:21.737Z,3.00
2019-03-19T01:03:49.418Z,2.90
2019-03-19T01:06:17.123Z,2.90
2019-03-19T01:08:46.813Z,2.90
2019-03-19T01:11:14.548Z,2.90
2019-03-19T01:13:42.136Z,2.80
2019-03-19T01:16:10.104Z,2.80
2019-03-19T01:18:37.874Z,2.90
2019-03-19T01:21:07.159Z,2.90
2019-03-19T01:23:34.685Z,2.90
2019-03-19T01:26:02.105Z,2.90
2019-03-19T01:28:29.754Z,2.90
2019-03-19T01:30:58.540Z,2.90
2019-03-19T01:33:26.119Z,2.90
2019-03-19T01:35:53.856Z,2.90
2019-03-19T01:38:21.706Z,2.90
2019-03-19T01:40:51.910Z,2.90
2019-03-19T01:43:19.770Z,3.00
2019-03-19T01:45:47.320Z,3.00
2019-03-19T01:48:15.071Z,2.90
2019-03-19T01:50:42.664Z,3.00
2019-03-19T01:53:10.274Z,3.00
2019-03-19T01:55:38.067Z,3.00
2019-03-19T01:58:05.708Z,3.00
2019-03-19T02:00:33.274Z,2.90
2019-03-19T02:03:00.908Z,2.90
2019-03-19T02:05:28.350Z,2.80
2019-03-19T02:07:55.936Z,2.80
2019-03-19T02:10:23.530Z,2.80
2019-03-19T02:12:51.372Z,2.80
2019-03-19T02:15:19.136Z,2.70
2019-03-19T02:17:46.450Z,2.70
2019-03-19T02:20:15.845Z,2.70
2019-03-19T02:22:43.430Z,2.70
2019-03-19T02:25:11.021Z,2.60
2019-03-19T02:27:38.779Z,2.60
2019-03-19T02:30:07.659Z,2.60
2019-03-19T02:32:35.680Z,2.60
2019-03-19T02:35:03.604Z,2.50
2019-03-19T02:37:31.269Z,2.50
2019-03-19T02:39:59.111Z,2.50
2019-03-19T02:42:26.827Z,2.40
2019-03-19T02:44:54.302Z,2.40
2019-03-19T02:47:21.587Z,2.40
2019-03-19T02:49:49.386Z,2.30
2019-03-19T02:52:16.567Z,2.30
2019-03-19T02:54:44.660Z,2.30
2019-03-19T02:57:12.317Z,2.30
2019-03-19T02:59:39.898Z,2.30
2019-03-19T03:02:07.584Z,2.40
2019-03-19T03:04:35.299Z,2.40
2019-03-19T03:07:03.039Z,2.40
2019-03-19T03:09:30.522Z,2.40
2019-03-19T03:11:58.148Z,2.40
2019-03-19T03:14:25.599Z,2.40
2019-03-19T03:16:53.244Z,2.40
2019-03-19T03:19:20.468Z,2.50
2019-03-19T03:21:48.103Z,2.60
2019-03-19T03:24:15.469Z,2.60
2019-03-19T03:26:48.050Z,2.70
2019-03-19T03:29:12.333Z,2.70
2019-03-19T03:31:39.692Z,2.70
2019-03-19T03:34:07.291Z,2.60
2019-03-19T03:36:35.016Z,2.50
2019-03-19T03:39:04.145Z,2.40
2019-03-19T03:41:31.779Z,2.40
2019-03-19T03:43:59.781Z,2.30
2019-03-19T03:46:27.842Z,2.30
2019-03-19T03:48:55.074Z,2.20
2019-03-19T03:51:22.356Z,2.20
2019-03-19T03:53:49.992Z,2.10
2019-03-19T03:56:17.692Z,2.10
2019-03-19T03:58:59.598Z,2.10
2019-03-19T04:01:14.736Z,2.10
2019-03-19T04:03:42.300Z,2.10
2019-03-19T04:06:10.030Z,2.10
2019-03-19T04:08:37.879Z,2.10
2019-03-19T04:11:05.260Z,2.00
2019-03-19T04:13:33.008Z,2.00
2019-03-19T04:16:01.162Z,2.00
2019-03-19T04:18:28.915Z,2.00
2019-03-19T04:20:56.552Z,2.00
2019-03-19T04:23:24.310Z,2.10
2019-03-19T04:25:52.328Z,2.00
2019-03-19T04:28:20.270Z,2.00
2019-03-19T04:30:47.991Z,2.00
2019-03-19T04:33:15.900Z,1.90
2019-03-19T04:35:43.551Z,1.90
2019-03-19T04:38:11.303Z,1.90
2019-03-19T04:40:38.514Z,1.90
2019-03-19T04:43:05.806Z,1.90
2019-03-19T04:45:33.979Z,1.90
2019-03-19T04:48:03.627Z,1.90
2019-03-19T04:50:31.143Z,1.90
2019-03-19T04:52:58.745Z,1.90
2019-03-19T04:55:26.605Z,1.80
2019-03-19T04:57:54.242Z,1.80
2019-03-19T05:00:21.549Z,1.80
2019-03-19T05:02:48.975Z,1.80
2019-03-19T05:05:16.146Z,1.70
2019-03-19T05:07:43.833Z,1.70
2019-03-19T05:10:11.647Z,1.70
2019-03-19T05:12:38.872Z,1.60
2019-03-19T05:15:06.597Z,1.60
2019-03-19T05:17:33.935Z,1.70
2019-03-19T05:20:01.662Z,1.70
2019-03-19T05:22:30.411Z,1.70
2019-03-19T05:24:58.271Z,1.80
2019-03-19T05:27:25.965Z,1.80
2019-03-19T05:29:53.878Z,1.80
2019-03-19T05:32:21.905Z,1.90
2019-03-19T05:34:50.800Z,1.90
2019-03-19T05:37:18.390Z,1.80
2019-03-19T05:39:46.033Z,1.80
2019-03-19T05:42:14.180Z,1.80
2019-03-19T05:44:41.986Z,1.80
2019-03-19T05:47:10.063Z,1.80
2019-03-19T05:49:37.426Z,1.80
2019-03-19T05:52:05.333Z,1.80
2019-03-19T05:54:33.055Z,1.90
2019-03-19T05:57:01.110Z,2.00
2019-03-19T05:59:28.751Z,2.10
2019-03-19T06:01:56.423Z,2.20
2019-03-19T06:04:24.728Z,2.20
2019-03-19T06:06:52.822Z,2.30
2019-03-19T06:09:21.155Z,2.20
2019-03-19T06:11:49.029Z,2.30
2019-03-19T06:14:17.009Z,2.70
2019-03-19T06:16:44.888Z,3.40
2019-03-19T06:19:12.818Z,3.70
2019-03-19T06:21:40.449Z,3.40
2019-03-19T06:24:08.194Z,3.30
2019-03-19T06:26:37.127Z,3.50
2019-03-19T06:29:05.766Z,3.40
2019-03-19T06:31:33.824Z,3.20
2019-03-19T06:34:01.738Z,3.10
2019-03-19T06:36:29.703Z,3.10
2019-03-19T06:38:57.270Z,3.10
2019-03-19T06:41:25.344Z,3.20
2019-03-19T06:43:53.357Z,3.20
2019-03-19T06:46:21.394Z,3.20
2019-03-19T06:52:18.158Z,3.10
2019-03-19T06:54:46.006Z,3.20
2019-03-19T06:57:14.098Z,3.20
2019-03-19T06:59:41.975Z,3.30
2019-03-19T07:02:10.184Z,3.50
2019-03-19T07:04:38.031Z,3.40
2019-03-19T07:07:06.255Z,3.50
2019-03-19T07:09:33.979Z,3.80
2019-03-19T07:12:01.837Z,4.40
2019-03-19T07:14:29.408Z,5.50
2019-03-19T07:16:57.049Z,7.20
2019-03-19T07:19:25.277Z,7.50
2019-03-19T07:21:53.228Z,7.10
2019-03-19T07:24:21.181Z,6.50
2019-03-19T07:26:49.352Z,6.00
2019-03-19T07:29:18.153Z,5.60
2019-03-19T07:31:46.325Z,5.80
2019-03-19T07:34:13.821Z,8.70
2019-03-19T07:36:42.338Z,11.30
2019-03-19T07:39:10.367Z,13.20
2019-03-19T07:41:38.430Z,12.80
2019-03-19T07:44:17.535Z,10.70
2019-03-19T07:46:47.840Z,9.10
2019-03-19T07:49:18.517Z,8.00
2019-03-19T07:51:46.952Z,7.80
2019-03-19T07:54:14.840Z,7.50
2019-03-19T07:56:43.945Z,7.10
2019-03-19T07:59:13.047Z,7.10
2019-03-19T08:01:41.494Z,7.50
2019-03-19T08:04:10.142Z,8.10
2019-03-19T08:06:38.543Z,8.20
2019-03-19T08:09:07.851Z,9.00
2019-03-19T08:11:35.908Z,10.40
2019-03-19T08:14:03.676Z,11.40
2019-03-19T08:16:32.062Z,12.40
2019-03-19T08:19:05.523Z,13.00
2019-03-19T08:21:34.093Z,13.40
2019-03-19T08:24:02.644Z,12.30
2019-03-19T08:26:30.594Z,11.10
2019-03-19T08:28:58.678Z,11.30
2019-03-19T08:31:26.590Z,12.20
2019-03-19T08:34:03.374Z,12.80
2019-03-19T08:36:38.176Z,13.20
2019-03-19T08:39:12.161Z,13.00
2019-03-19T08:41:40.240Z,11.90
2019-03-19T08:44:09.002Z,10.80
2019-03-19T08:46:37.677Z,10.40
2019-03-19T08:49:12.028Z,11.00
2019-03-19T08:51:40.396Z,11.20
2019-03-19T08:54:12.200Z,10.90
2019-03-19T08:56:40.303Z,10.80
2019-03-19T08:59:09.208Z,10.70
2019-03-19T09:01:37.276Z,10.20
2019-03-19T09:04:05.115Z,9.60
2019-03-19T09:06:33.077Z,9.20
2019-03-19T09:09:01.454Z,9.10
2019-03-19T09:11:36.615Z,8.80
2019-03-19T09:14:04.693Z,8.50
2019-03-19T09:16:33.331Z,8.30
2019-03-19T09:19:01.304Z,8.30
2019-03-19T09:21:29.886Z,8.90
2019-03-19T09:23:59.462Z,9.50
2019-03-19T09:26:28.198Z,10.00
2019-03-19T09:28:55.959Z,10.40
2019-03-19T09:31:25.871Z,10.80
2019-03-19T09:33:53.622Z,10.90
2019-03-19T09:36:25.660Z,10.30
2019-03-19T09:38:53.941Z,10.10
2019-03-19T09:41:21.899Z,9.80
2019-03-19T09:43:49.827Z,9.40
2019-03-19T09:46:20.938Z,9.30
2019-03-19T09:48:48.784Z,9.30
2019-03-19T09:51:16.797Z,9.30
2019-03-19T09:53:53.126Z,9.70
2019-03-19T09:56:21.279Z,10.20
2019-03-19T09:58:49.114Z,10.20
2019-03-19T10:01:18.740Z,10.20
2019-03-19T10:03:51.504Z,10.10
2019-03-19T10:06:20.485Z,9.90
2019-03-19T10:08:58.503Z,10.30
2019-03-19T10:11:26.661Z,10.70
2019-03-19T10:13:56.089Z,11.30
2019-03-19T10:16:24.143Z,11.90
2019-03-19T10:18:59.269Z,11.50
2019-03-19T10:21:36.866Z,11.10
2019-03-19T10:24:04.951Z,11.60
2019-03-19T10:26:39.372Z,11.60
2019-03-19T10:29:03.706Z,11.40
2019-03-19T10:31:32.254Z,11.00
2019-03-19T10:34:00.627Z,10.70
2019-03-19T10:36:33.358Z,11.20
2019-03-19T10:39:02.443Z,11.20
2019-03-19T10:41:51.460Z,11.00
2019-03-19T10:44:27.135Z,11.30
2019-03-19T10:46:55.788Z,11.00
2019-03-19T10:49:39.637Z,10.50
2019-03-19T10:55:16.094Z,10.00
2019-03-19T10:57:47.247Z,10.00
2019-03-19T11:00:33.095Z,10.00
2019-03-19T11:03:05.667Z,10.10
2019-03-19T11:05:43.005Z,10.60
2019-03-19T11:08:24.974Z,10.90
2019-03-19T11:11:06.563Z,10.50
2019-03-19T11:13:35.058Z,10.20
2019-03-19T11:16:19.211Z,9.90
2019-03-19T11:18:58.199Z,9.60
2019-03-19T11:21:26.415Z,9.80
2019-03-19T11:24:12.226Z,10.30
2019-03-19T11:26:51.976Z,10.50
2019-03-19T11:29:23.660Z,10.20
2019-03-19T11:31:54.925Z,10.20
2019-03-19T11:34:24.075Z,10.30
2019-03-19T11:36:57.738Z,10.40
2019-03-19T11:39:28.805Z,10.60
2019-03-19T11:42:15.177Z,10.90
2019-03-19T11:45:15.957Z,10.80
2019-03-19T11:48:03.260Z,10.80
2019-03-19T12:01:16.368Z,11.70
2019-03-19T12:03:45.394Z,11.50
2019-03-19T12:06:25.128Z,11.20
2019-03-19T12:12:56.557Z,11.10
2019-03-19T12:15:25.580Z,11.00
2019-03-19T12:17:59.769Z,11.40
2019-03-19T12:20:31.880Z,11.90
2019-03-19T12:23:12.764Z,12.20
2019-03-19T12:25:41.659Z,12.20
2019-03-19T12:31:03.776Z,10.90
2019-03-19T12:33:43.112Z,10.10
2019-03-19T12:36:17.251Z,10.00
2019-03-19T12:38:54.454Z,10.50
2019-03-19T12:41:36.556Z,10.90
2019-03-19T12:44:14.605Z,11.30
2019-03-19T12:46:48.021Z,11.30
2019-03-19T12:49:23.905Z,11.20
2019-03-19T12:52:06.060Z,10.80
2019-03-19T12:54:32.214Z,10.90
2019-03-19T12:57:00.769Z,11.00
2019-03-19T12:59:38.650Z,10.70
2019-03-19T13:02:04.611Z,10.30
2019-03-19T13:04:34.976Z,10.00
2019-03-19T13:07:34.466Z,10.10
2019-03-19T13:13:13.998Z,10.40
2019-03-19T13:15:42.903Z,10.90
2019-03-19T13:18:13.748Z,11.20
2019-03-19T13:21:02.076Z,10.90
2019-03-19T13:23:30.286Z,10.70
2019-03-19T13:26:00.967Z,10.90
2019-03-19T13:28:36.355Z,10.90
2019-03-19T13:31:08.452Z,10.90
2019-03-19T13:33:45.247Z,11.30
2019-03-19T13:36:13.072Z,11.30
2019-03-19T13:38:47.941Z,10.90
2019-03-19T13:41:16.463Z,10.60
2019-03-19T13:43:44.924Z,10.30
2019-03-19T13:46:13.221Z,10.20
2019-03-19T13:48:45.663Z,10.10
2019-03-19T13:51:14.506Z,10.20
2019-03-19T13:53:54.637Z,10.40
2019-03-19T13:56:22.671Z,10.50
2019-03-19T13:59:06.491Z,10.80
2019-03-19T14:01:40.468Z,11.10
2019-03-19T14:04:48.991Z,11.30
2019-03-19T14:07:23.116Z,11.40
2019-03-19T14:09:58.865Z,11.80
2019-03-19T14:12:27.137Z,11.90
2019-03-19T14:18:17.615Z,11.00
2019-03-19T14:20:54.509Z,10.20
2019-03-19T14:23:36.120Z,10.00
2019-03-19T14:26:04.734Z,9.90
2019-03-19T14:29:03.837Z,10.30
2019-03-19T14:31:11.177Z,10.50
2019-03-19T14:33:43.982Z,10.40
2019-03-19T14:36:12.526Z,10.30
2019-03-19T14:42:29.533Z,9.70
2019-03-19T14:45:04.921Z,9.70
2019-03-19T14:47:33.545Z,10.00
2019-03-19T14:50:09.187Z,10.40
2019-03-19T14:52:40.620Z,10.30
2019-03-19T14:55:23.885Z,10.10
2019-03-19T14:57:52.050Z,9.80
2019-03-19T15:00:23.251Z,9.70
2019-03-19T15:02:50.966Z,9.70
2019-03-19T15:05:19.443Z,9.90
2019-03-19T15:07:55.373Z,9.90
2019-03-19T15:10:24.604Z,10.00
2019-03-19T15:12:57.348Z,10.10
2019-03-19T15:15:41.301Z,10.00
2019-03-19T15:18:15.538Z,9.70
2019-03-19T15:20:44.494Z,9.40
2019-03-19T15:23:13.235Z,9.20
2019-03-19T15:25:46.778Z,9.10
2019-03-19T15:28:17.098Z,9.00
2019-03-19T15:30:51.413Z,9.00
2019-03-19T15:33:19.577Z,9.00
2019-03-19T15:41:46.364Z,8.50
2019-03-19T15:44:14.250Z,8.40
2019-03-19T15:47:13.441Z,8.50
2019-03-19T15:49:42.825Z,8.70
2019-03-19T15:52:23.131Z,8.70
2019-03-19T15:54:51.701Z,8.60
2019-03-19T15:57:20.869Z,8.60
2019-03-19T16:00:08.119Z,8.70
2019-03-19T16:05:40.938Z,8.90
2019-03-19T16:08:10.056Z,9.00
2019-03-19T16:20:38.358Z,8.20
2019-03-19T16:23:10.627Z,8.20
2019-03-19T16:25:39.470Z,8.00
2019-03-19T16:28:07.817Z,8.00
2019-03-19T16:30:35.838Z,8.10
2019-03-19T16:33:12.310Z,8.10
2019-03-19T16:35:43.431Z,8.10
2019-03-19T16:38:23.270Z,8.00
2019-03-19T16:48:11.201Z,7.80
2019-03-19T16:50:44.904Z,7.70
2019-03-19T16:53:12.937Z,7.70
2019-03-19T16:56:02.346Z,7.60
2019-03-19T16:58:39.521Z,7.60
2019-03-19T17:01:20.259Z,7.50
2019-03-19T17:03:51.595Z,7.40
2019-03-19T17:06:25.156Z,7.30
2019-03-19T17:08:53.762Z,7.30
2019-03-19T17:11:21.882Z,7.20
2019-03-19T17:13:50.197Z,7.10
2019-03-19T17:16:21.356Z,7.10
2019-03-19T17:18:59.082Z,7.00
2019-03-19T17:31:00.597Z,6.70
2019-03-19T17:33:30.627Z,6.60
2019-03-19T17:35:58.943Z,6.60
2019-03-19T17:38:29.950Z,6.50
2019-03-19T17:40:57.826Z,6.50
2019-03-19T17:43:28.303Z,6.40
2019-03-19T17:45:58.160Z,6.40
2019-03-19T17:48:28.227Z,6.40
2019-03-19T17:51:06.224Z,6.30
2019-03-19T17:53:34.958Z,6.20
2019-03-19T17:56:03.942Z,6.20
2019-03-19T17:58:42.127Z,6.10
2019-03-19T18:01:17.332Z,6.00
2019-03-19T18:03:44.253Z,6.00
2019-03-19T18:06:14.861Z,5.90
2019-03-19T18:08:45.475Z,5.80
2019-03-19T18:11:28.693Z,5.70
2019-03-19T18:13:58.630Z,5.30
2019-03-19T18:16:33.321Z,5.10
2019-03-19T18:19:07.666Z,5.00
2019-03-19T18:21:36.491Z,5.00
2019-03-19T18:24:19.930Z,5.00
2019-03-19T18:27:01.229Z,4.90
2019-03-19T18:29:31.823Z,4.90
2019-03-19T18:32:20.314Z,4.80
2019-03-19T18:35:08.380Z,4.70
2019-03-19T18:37:49.870Z,4.50
2019-03-19T18:40:16.794Z,4.50
2019-03-19T18:42:57.014Z,4.10
2019-03-19T20:05:42.146Z,1.70
2019-03-19T20:08:42.713Z,1.70
2019-03-19T20:11:24.108Z,1.80
2019-03-19T20:14:26.821Z,1.90
2019-03-19T20:16:55.412Z,1.80
2019-03-19T20:19:48.905Z,1.60
2019-03-19T20:25:26.947Z,1.60
2019-03-19T20:28:40.926Z,1.50
2019-03-19T20:31:39.428Z,1.30
2019-03-19T20:34:08.249Z,1.30
2019-03-19T20:36:46.207Z,1.30
2019-03-19T20:39:14.815Z,1.30
2019-03-19T20:45:07.355Z,1.20
2019-03-19T20:53:56.698Z,1.20
2019-03-19T20:56:25.013Z,1.30
2019-03-19T20:58:54.447Z,1.20
2019-03-19T21:01:24.845Z,1.20
2019-03-19T21:03:55.307Z,1.20
2019-03-19T21:06:24.341Z,1.10
2019-03-19T21:08:53.977Z,1.10
2019-03-19T21:11:24.882Z,1.10
2019-03-19T21:13:53.642Z,1.10
2019-03-19T21:16:24.931Z,0.80
2019-03-19T21:18:53.578Z,0.60
2019-03-19T21:21:22.220Z,0.70
2019-03-19T21:23:52.342Z,0.80
2019-03-19T21:26:22.700Z,0.90
2019-03-19T21:28:56.121Z,0.90
2019-03-19T21:31:24.903Z,1.00
2019-03-19T21:34:00.582Z,0.80
2019-03-19T21:39:30.959Z,0.90
2019-03-19T21:42:10.253Z,1.00
2019-03-19T21:44:47.092Z,1.10
2019-03-19T21:47:35.315Z,1.20
2019-03-19T21:53:04.186Z,1.20
2019-03-19T21:58:44.654Z,1.30
2019-03-19T22:02:05.559Z,1.40
2019-03-19T22:08:06.494Z,1.40
2019-03-19T22:13:33.345Z,1.40
2019-03-19T22:16:07.185Z,1.50
2019-03-19T22:18:40.072Z,1.50
2019-03-19T22:21:08.084Z,1.50
2019-03-19T22:23:36.142Z,1.40
2019-03-19T22:26:04.503Z,1.40
2019-03-19T22:28:36.442Z,1.40
2019-03-19T22:31:04.728Z,1.30
2019-03-19T22:33:33.548Z,1.30
2019-03-19T22:36:03.526Z,1.30
2019-03-19T22:38:31.433Z,1.40
2019-03-19T22:40:59.199Z,1.40
2019-03-19T22:43:27.894Z,1.50
2019-03-19T22:46:04.173Z,1.50
2019-03-19T22:48:31.976Z,1.50
2019-03-19T22:51:04.817Z,1.60
2019-03-19T22:53:31.457Z,1.60
2019-03-19T22:55:59.797Z,1.70
2019-03-19T22:58:29.421Z,1.80
2019-03-19T23:01:04.460Z,1.70
2019-03-19T23:03:32.853Z,1.70
2019-03-19T23:06:01.616Z,1.70
2019-03-19T23:08:50.978Z,1.70
2019-03-19T23:12:04.933Z,1.70
2019-03-19T23:14:33.787Z,1.70
2019-03-19T23:17:05.735Z,1.70
2019-03-19T23:19:33.413Z,1.70
2019-03-19T23:22:10.751Z,1.70
2019-03-19T23:24:39.351Z,1.70
2019-03-19T23:27:09.909Z,1.70
2019-03-19T23:29:38.009Z,1.70
2019-03-19T23:32:06.243Z,1.70
2019-03-19T23:34:38.553Z,1.70
2019-03-19T23:37:04.806Z,1.60
2019-03-19T23:39:33.040Z,1.50
2019-03-19T23:42:06.463Z,1.40
2019-03-19T23:44:34.978Z,1.40
2019-03-19T23:47:08.496Z,1.30
2019-03-19T23:49:38.482Z,1.30
2019-03-19T23:52:10.235Z,1.30
2019-03-19T23:54:38.462Z,1.30
2019-03-19T23:57:06.511Z,1.40
2019-03-19T23:59:34.501Z,1.40
